Lackawanna, New York
Current Conditions -  °F | °C
As of 3:54 PM on Saturday 25 Oct 2014 (Local Time) from KBUF Reporting Station
Overcast Overcast  
Wind Chill: 58°   Ceiling: 1100
Heat Index: 58°   Visibility: 7mi
Dew Point: 53°   Wind: 23mph
Humidity: 84%   Direction: 250°WSW
Pressure: 29.63"   Gusts: 35mph
Location:  42.83°N, 78.82°W
Report Text: KBUF 251954Z 25020G30KT 7SM BKN011 BKN018 OVC035 14/12 A2963 RMK AO2 PK WND 23032/1933 SLP035 T01440117
Loading
Personal Weather Stations






























Interactive Weather Map
Tropical Storm Tracking
New forecast layout! Learn more

10-Day Weather Forecast

Advertisements
Track Severe Weather on mobile